Aghagallon, United Kingdom
Current Conditions -  °F | °C
As of 9:20 PM on Wednesday 17 Dec 2014 (Local Time) from EGAA Reporting Station
Broken Clouds Broken Clouds  
Wind Chill: 50°   Ceiling: 500
Heat Index: 50°   Visibility: 5mi
Dew Point: 50°   Wind: 12mph
Humidity: 100%   Direction: 230°SW
Pressure: 29.56"   Gusts: NA
Location:  54.5°N, 6.3°W
Report Text: EGAA 172120Z 23010KT 8000 FEW003 BKN005 10/10 Q1001
Loading
Personal Weather Stations






























Interactive Weather Map New forecast layout! Learn more

10-Day Weather Forecast

Advertisements
Track Severe Weather on mobile